sensor_id;sensor_type;location;lat;lon;timestamp;pressure;altitude;pressure_sealevel;temperature;humidity
22440;BME280;11387;51.612;7.210;2024-03-23T00:54:33;100142.22;;;6.08;nan
22440;BME280;11387;51.612;7.210;2024-03-23T00:56:55;100135.59;;;6.03;nan
22440;BME280;11387;51.612;7.210;2024-03-23T00:59:17;100130.13;;;6.04;nan
22440;BME280;11387;51.612;7.210;2024-03-23T01:01:39;100125.06;;;6.01;nan
22440;BME280;11387;51.612;7.210;2024-03-23T01:04:02;100123.06;;;5.94;nan
22440;BME280;11387;51.612;7.210;2024-03-23T01:06:25;100118.06;;;5.79;nan
22440;BME280;11387;51.612;7.210;2024-03-23T01:08:46;100110.00;;;5.70;nan
22440;BME280;11387;51.612;7.210;2024-03-23T01:11:10;100120.78;;;5.58;nan
22440;BME280;11387;51.612;7.210;2024-03-23T01:13:33;100123.69;;;5.55;nan
22440;BME280;11387;51.612;7.210;2024-03-23T01:15:56;100124.97;;;5.61;nan
22440;BME280;11387;51.612;7.210;2024-03-23T01:18:18;100121.22;;;5.63;nan
22440;BME280;11387;51.612;7.210;2024-03-23T01:20:40;100118.16;;;5.68;nan
22440;BME280;11387;51.612;7.210;2024-03-23T01:23:02;100122.31;;;5.61;nan
22440;BME280;11387;51.612;7.210;2024-03-23T01:25:25;100113.91;;;5.65;nan
22440;BME280;11387;51.612;7.210;2024-03-23T01:27:48;100111.56;;;5.72;nan
22440;BME280;11387;51.612;7.210;2024-03-23T01:30:10;100099.91;;;5.73;nan
22440;BME280;11387;51.612;7.210;2024-03-23T01:32:32;100107.88;;;5.63;nan
22440;BME280;11387;51.612;7.210;2024-03-23T01:34:54;100099.97;;;5.52;nan
22440;BME280;11387;51.612;7.210;2024-03-23T01:37:16;100087.03;;;5.48;nan
22440;BME280;11387;51.612;7.210;2024-03-23T01:39:39;100086.06;;;5.49;nan
22440;BME280;11387;51.612;7.210;2024-03-23T01:42:00;100094.97;;;5.59;nan
22440;BME280;11387;51.612;7.210;2024-03-23T01:44:24;100087.97;;;5.67;nan
22440;BME280;11387;51.612;7.210;2024-03-23T01:46:46;100089.91;;;5.65;nan
22440;BME280;11387;51.612;7.210;2024-03-23T01:49:08;100087.25;;;5.65;nan
22440;BME280;11387;51.612;7.210;2024-03-23T01:51:31;100080.50;;;5.61;nan
22440;BME280;11387;51.612;7.210;2024-03-23T01:53:56;100066.41;;;5.50;nan
22440;BME280;11387;51.612;7.210;2024-03-23T01:56:17;100055.66;;;5.30;nan
22440;BME280;11387;51.612;7.210;2024-03-23T01:58:40;100045.84;;;5.10;nan
22440;BME280;11387;51.612;7.210;2024-03-23T02:01:03;100052.69;;;5.03;nan
22440;BME280;11387;51.612;7.210;2024-03-23T02:03:26;100045.28;;;5.06;nan
22440;BME280;11387;51.612;7.210;2024-03-23T02:05:48;100054.31;;;5.15;nan
22440;BME280;11387;51.612;7.210;2024-03-23T02:08:10;100044.50;;;5.15;nan
22440;BME280;11387;51.612;7.210;2024-03-23T02:10:32;100053.59;;;5.13;nan
22440;BME280;11387;51.612;7.210;2024-03-23T02:12:55;100054.00;;;5.08;nan
22440;BME280;11387;51.612;7.210;2024-03-23T02:15:16;100051.47;;;5.07;nan
22440;BME280;11387;51.612;7.210;2024-03-23T02:17:40;100053.78;;;5.21;nan
22440;BME280;11387;51.612;7.210;2024-03-23T02:20:02;100047.09;;;5.27;nan
22440;BME280;11387;51.612;7.210;2024-03-23T02:22:35;100049.03;;;5.25;nan
22440;BME280;11387;51.612;7.210;2024-03-23T02:24:58;100048.06;;;5.26;nan
22440;BME280;11387;51.612;7.210;2024-03-23T02:27:21;100041.94;;;5.35;nan
22440;BME280;11387;51.612;7.210;2024-03-23T02:29:42;100040.97;;;5.36;nan
22440;BME280;11387;51.612;7.210;2024-03-23T02:32:05;100049.47;;;5.30;nan
22440;BME280;11387;51.612;7.210;2024-03-23T02:34:27;100049.38;;;5.31;nan
22440;BME280;11387;51.612;7.210;2024-03-23T02:36:50;100047.41;;;5.33;nan
22440;BME280;11387;51.612;7.210;2024-03-23T02:39:11;100055.53;;;5.32;nan
22440;BME280;11387;51.612;7.210;2024-03-23T02:41:36;100052.72;;;5.33;nan
22440;BME280;11387;51.612;7.210;2024-03-23T02:43:58;100059.56;;;5.26;nan
22440;BME280;11387;51.612;7.210;2024-03-23T02:46:20;100045.94;;;5.20;nan
22440;BME280;11387;51.612;7.210;2024-03-23T02:48:42;100043.66;;;5.15;nan
22440;BME280;11387;51.612;7.210;2024-03-23T02:51:04;100039.59;;;5.11;nan
22440;BME280;11387;51.612;7.210;2024-03-23T02:53:26;100036.03;;;5.10;nan
22440;BME280;11387;51.612;7.210;2024-03-23T02:55:49;100035.34;;;5.08;nan
22440;BME280;11387;51.612;7.210;2024-03-23T02:58:12;100030.16;;;5.07;nan
22440;BME280;11387;51.612;7.210;2024-03-23T03:00:34;100024.44;;;5.11;nan
22440;BME280;11387;51.612;7.210;2024-03-23T03:02:56;100029.03;;;5.09;nan
22440;BME280;11387;51.612;7.210;2024-03-23T03:05:18;100028.44;;;5.06;nan
22440;BME280;11387;51.612;7.210;2024-03-23T03:07:42;100041.50;;;5.09;nan
22440;BME280;11387;51.612;7.210;2024-03-23T03:10:05;100037.63;;;5.13;nan
22440;BME280;11387;51.612;7.210;2024-03-23T03:12:28;100051.34;;;5.08;nan
22440;BME280;11387;51.612;7.210;2024-03-23T03:14:58;100048.66;;;5.08;nan
22440;BME280;11387;51.612;7.210;2024-03-23T03:17:20;100044.63;;;5.14;nan
22440;BME280;11387;51.612;7.210;2024-03-23T03:19:43;100038.91;;;5.18;nan
22440;BME280;11387;51.612;7.210;2024-03-23T03:22:04;100033.72;;;5.17;nan
22440;BME280;11387;51.612;7.210;2024-03-23T03:24:27;100047.94;;;5.06;nan
22440;BME280;11387;51.612;7.210;2024-03-23T03:26:49;100040.88;;;4.96;nan
22440;BME280;11387;51.612;7.210;2024-03-23T03:29:11;100028.16;;;4.99;nan
22440;BME280;11387;51.612;7.210;2024-03-23T03:31:35;100040.94;;;5.05;nan
22440;BME280;11387;51.612;7.210;2024-03-23T03:33:57;100033.84;;;4.94;nan
22440;BME280;11387;51.612;7.210;2024-03-23T03:36:19;100043.06;;;4.90;nan
22440;BME280;11387;51.612;7.210;2024-03-23T03:38:42;100040.88;;;4.96;nan
22440;BME280;11387;51.612;7.210;2024-03-23T03:41:04;100039.72;;;4.88;nan
22440;BME280;11387;51.612;7.210;2024-03-23T03:43:27;100033.16;;;4.92;nan
22440;BME280;11387;51.612;7.210;2024-03-23T03:45:52;100031.97;;;4.85;nan
22440;BME280;11387;51.612;7.210;2024-03-23T03:48:16;100035.63;;;4.84;nan
22440;BME280;11387;51.612;7.210;2024-03-23T03:50:38;100024.72;;;4.87;nan
22440;BME280;11387;51.612;7.210;2024-03-23T03:53:01;100018.91;;;4.82;nan
22440;BME280;11387;51.612;7.210;2024-03-23T03:55:22;100026.06;;;4.82;nan
22440;BME280;11387;51.612;7.210;2024-03-23T03:57:45;100028.47;;;4.85;nan
22440;BME280;11387;51.612;7.210;2024-03-23T04:00:08;100020.03;;;4.80;nan
22440;BME280;11387;51.612;7.210;2024-03-23T04:02:32;100028.28;;;4.77;nan
22440;BME280;11387;51.612;7.210;2024-03-23T04:04:55;100023.72;;;4.67;nan
22440;BME280;11387;51.612;7.210;2024-03-23T04:07:17;100018.06;;;4.61;nan
22440;BME280;11387;51.612;7.210;2024-03-23T04:09:40;100013.72;;;4.60;nan
22440;BME280;11387;51.612;7.210;2024-03-23T04:12:03;100008.91;;;4.54;nan
22440;BME280;11387;51.612;7.210;2024-03-23T04:14:24;100004.81;;;4.50;nan
22440;BME280;11387;51.612;7.210;2024-03-23T04:16:48;100018.56;;;4.55;nan
22440;BME280;11387;51.612;7.210;2024-03-23T04:19:10;100028.72;;;4.61;nan
22440;BME280;11387;51.612;7.210;2024-03-23T04:21:35;100019.25;;;4.68;nan
22440;BME280;11387;51.612;7.210;2024-03-23T04:23:57;100023.72;;;4.67;nan
22440;BME280;11387;51.612;7.210;2024-03-23T04:26:20;100022.03;;;4.66;nan
22440;BME280;11387;51.612;7.210;2024-03-23T04:28:41;100016.25;;;4.61;nan
22440;BME280;11387;51.612;7.210;2024-03-23T04:31:04;100019.88;;;4.60;nan
22440;BME280;11387;51.612;7.210;2024-03-23T04:33:26;100018.75;;;4.63;nan
22440;BME280;11387;51.612;7.210;2024-03-23T04:35:49;100010.66;;;4.64;nan
22440;BME280;11387;51.612;7.210;2024-03-23T04:38:12;100011.50;;;4.65;nan
22440;BME280;11387;51.612;7.210;2024-03-23T04:40:34;100004.50;;;4.64;nan
22440;BME280;11387;51.612;7.210;2024-03-23T04:42:57;100011.25;;;4.68;nan
22440;BME280;11387;51.612;7.210;2024-03-23T04:45:19;100007.28;;;4.62;nan
22440;BME280;11387;51.612;7.210;2024-03-23T04:47:42;100008.47;;;4.69;nan
22440;BME280;11387;51.612;7.210;2024-03-23T04:50:05;100007.38;;;4.72;nan
22440;BME280;11387;51.612;7.210;2024-03-23T04:52:26;100005.09;;;4.67;nan
22440;BME280;11387;51.612;7.210;2024-03-23T04:54:50;99997.13;;;4.67;nan
22440;BME280;11387;51.612;7.210;2024-03-23T04:57:13;99998.53;;;4.72;nan
22440;BME280;11387;51.612;7.210;2024-03-23T04:59:34;100008.78;;;4.76;nan
22440;BME280;11387;51.612;7.210;2024-03-23T05:01:57;99998.59;;;4.81;nan
22440;BME280;11387;51.612;7.210;2024-03-23T05:04:19;100005.28;;;4.76;nan
22440;BME280;11387;51.612;7.210;2024-03-23T05:06:41;100009.38;;;4.80;nan
22440;BME280;11387;51.612;7.210;2024-03-23T05:09:03;100000.75;;;4.87;nan
22440;BME280;11387;51.612;7.210;2024-03-23T05:11:28;100006.78;;;4.89;nan
22440;BME280;11387;51.612;7.210;2024-03-23T05:13:50;100009.03;;;4.94;nan
22440;BME280;11387;51.612;7.210;2024-03-23T05:16:12;100010.53;;;4.87;nan
22440;BME280;11387;51.612;7.210;2024-03-23T05:18:34;100009.69;;;4.86;nan
22440;BME280;11387;51.612;7.210;2024-03-23T05:20:57;100013.59;;;5.03;nan
22440;BME280;11387;51.612;7.210;2024-03-23T05:23:19;100017.34;;;5.01;nan
22440;BME280;11387;51.612;7.210;2024-03-23T05:25:41;100014.28;;;5.05;nan
22440;BME280;11387;51.612;7.210;2024-03-23T05:28:05;100015.03;;;5.07;nan
22440;BME280;11387;51.612;7.210;2024-03-23T05:30:27;100018.63;;;5.06;nan
22440;BME280;11387;51.612;7.210;2024-03-23T05:32:50;100011.03;;;5.02;nan
22440;BME280;11387;51.612;7.210;2024-03-23T05:35:12;100011.53;;;5.07;nan
22440;BME280;11387;51.612;7.210;2024-03-23T05:37:34;100016.84;;;5.07;nan
22440;BME280;11387;51.612;7.210;2024-03-23T05:39:56;100017.22;;;5.02;nan
22440;BME280;11387;51.612;7.210;2024-03-23T05:42:18;100018.28;;;5.11;nan
22440;BME280;11387;51.612;7.210;2024-03-23T05:44:44;100017.53;;;5.09;nan
22440;BME280;11387;51.612;7.210;2024-03-23T05:47:06;100015.22;;;5.15;nan
22440;BME280;11387;51.612;7.210;2024-03-23T05:49:29;100014.47;;;5.13;nan
22440;BME280;11387;51.612;7.210;2024-03-23T05:51:50;100013.78;;;5.11;nan
22440;BME280;11387;51.612;7.210;2024-03-23T05:54:13;100010.00;;;5.14;nan
22440;BME280;11387;51.612;7.210;2024-03-23T05:56:34;100010.72;;;5.16;nan
22440;BME280;11387;51.612;7.210;2024-03-23T05:58:57;100011.81;;;5.13;nan
22440;BME280;11387;51.612;7.210;2024-03-23T06:01:20;100010.38;;;5.09;nan
22440;BME280;11387;51.612;7.210;2024-03-23T06:03:42;100013.38;;;5.16;nan
22440;BME280;11387;51.612;7.210;2024-03-23T06:06:05;100019.72;;;5.25;nan
22440;BME280;11387;51.612;7.210;2024-03-23T06:08:32;100016.91;;;5.26;nan
22440;BME280;11387;51.612;7.210;2024-03-23T06:10:54;100013.41;;;5.26;nan
22440;BME280;11387;51.612;7.210;2024-03-23T06:13:17;100013.88;;;5.31;nan
22440;BME280;11387;51.612;7.210;2024-03-23T06:15:39;100017.50;;;5.30;nan
22440;BME280;11387;51.612;7.210;2024-03-23T06:18:03;100019.38;;;5.39;nan
22440;BME280;11387;51.612;7.210;2024-03-23T06:20:25;100015.84;;;5.38;nan
22440;BME280;11387;51.612;7.210;2024-03-23T06:22:48;100024.97;;;5.36;nan
22440;BME280;11387;51.612;7.210;2024-03-23T06:25:09;100026.22;;;5.32;nan
22440;BME280;11387;51.612;7.210;2024-03-23T06:27:33;100022.00;;;5.29;nan
22440;BME280;11387;51.612;7.210;2024-03-23T06:29:55;100028.44;;;5.27;nan
22440;BME280;11387;51.612;7.210;2024-03-23T06:32:18;100030.72;;;5.31;nan
22440;BME280;11387;51.612;7.210;2024-03-23T06:34:42;100029.53;;;5.24;nan
22440;BME280;11387;51.612;7.210;2024-03-23T06:37:04;100030.88;;;5.39;nan
22440;BME280;11387;51.612;7.210;2024-03-23T06:39:26;100033.41;;;5.81;nan
22440;BME280;11387;51.612;7.210;2024-03-23T06:41:52;100035.47;;;5.99;nan
22440;BME280;11387;51.612;7.210;2024-03-23T06:44:14;100047.69;;;6.01;nan
22440;BME280;11387;51.612;7.210;2024-03-23T06:46:37;100030.41;;;5.96;nan
22440;BME280;11387;51.612;7.210;2024-03-23T06:48:58;100036.59;;;5.96;nan
22440;BME280;11387;51.612;7.210;2024-03-23T06:51:22;100035.06;;;6.13;nan
22440;BME280;11387;51.612;7.210;2024-03-23T06:53:44;100034.53;;;6.19;nan
22440;BME280;11387;51.612;7.210;2024-03-23T06:56:06;100029.78;;;6.42;nan
22440;BME280;11387;51.612;7.210;2024-03-23T06:58:28;100029.22;;;6.58;nan
22440;BME280;11387;51.612;7.210;2024-03-23T07:00:50;100038.34;;;6.75;nan
22440;BME280;11387;51.612;7.210;2024-03-23T07:03:12;100033.69;;;6.77;nan
22440;BME280;11387;51.612;7.210;2024-03-23T07:05:35;100037.06;;;6.88;nan
22440;BME280;11387;51.612;7.210;2024-03-23T07:07:58;100042.53;;;7.06;nan
22440;BME280;11387;51.612;7.210;2024-03-23T07:10:20;100038.75;;;7.46;nan
22440;BME280;11387;51.612;7.210;2024-03-23T07:12:42;100031.25;;;9.04;nan
22440;BME280;11387;51.612;7.210;2024-03-23T07:15:05;100034.25;;;11.27;nan
22440;BME280;11387;51.612;7.210;2024-03-23T07:17:27;100026.09;;;12.85;nan
22440;BME280;11387;51.612;7.210;2024-03-23T07:19:50;64647.09;;;-145.52;100.00
22440;BME280;11387;51.612;7.210;2024-03-23T07:22:11;64647.09;;;189.01;100.00
22440;BME280;11387;51.612;7.210;2024-03-23T07:24:35;64647.09;;;189.01;100.00
22440;BME280;11387;51.612;7.210;2024-03-23T07:27:05;64647.09;;;-145.52;100.00
22440;BME280;11387;51.612;7.210;2024-03-23T07:31:53;100014.13;;;18.67;nan
22440;BME280;11387;51.612;7.210;2024-03-23T07:34:15;100021.16;;;19.13;nan
22440;BME280;11387;51.612;7.210;2024-03-23T07:36:38;100033.06;;;18.87;nan
22440;BME280;11387;51.612;7.210;2024-03-23T07:38:59;100031.97;;;17.34;nan
22440;BME280;11387;51.612;7.210;2024-03-23T07:41:23;100024.97;;;18.42;nan
22440;BME280;11387;51.612;7.210;2024-03-23T07:43:46;64647.09;;;-145.52;100.00
22440;BME280;11387;51.612;7.210;2024-03-23T07:46:09;100016.38;;;22.27;nan
22440;BME280;11387;51.612;7.210;2024-03-23T07:48:31;100024.97;;;22.19;nan
22440;BME280;11387;51.612;7.210;2024-03-23T07:51:01;100032.25;;;23.16;nan
22440;BME280;11387;51.612;7.210;2024-03-23T07:53:23;100014.88;;;23.27;nan
22440;BME280;11387;51.612;7.210;2024-03-23T07:55:53;100030.75;;;20.81;nan
22440;BME280;11387;51.612;7.210;2024-03-23T08:00:39;100023.44;;;14.69;nan
22440;BME280;11387;51.612;7.210;2024-03-23T08:03:01;100026.13;;;14.11;nan
22440;BME280;11387;51.612;7.210;2024-03-23T08:05:26;100030.06;;;13.94;nan
22440;BME280;11387;51.612;7.210;2024-03-23T08:07:50;100039.28;;;13.99;nan
22440;BME280;11387;51.612;7.210;2024-03-23T08:10:12;100031.47;;;13.22;nan
22440;BME280;11387;51.612;7.210;2024-03-23T08:12:34;100039.00;;;12.51;nan
22440;BME280;11387;51.612;7.210;2024-03-23T08:14:58;100039.13;;;11.88;nan
22440;BME280;11387;51.612;7.210;2024-03-23T08:17:19;100033.19;;;12.40;nan
22440;BME280;11387;51.612;7.210;2024-03-23T08:19:42;100031.47;;;13.08;nan
22440;BME280;11387;51.612;7.210;2024-03-23T08:22:04;100031.47;;;12.16;nan
22440;BME280;11387;51.612;7.210;2024-03-23T08:24:26;100040.78;;;11.49;nan
22440;BME280;11387;51.612;7.210;2024-03-23T08:26:48;100036.75;;;12.78;nan
22440;BME280;11387;51.612;7.210;2024-03-23T08:29:10;100030.78;;;13.28;nan
22440;BME280;11387;51.612;7.210;2024-03-23T08:33:56;100031.47;;;13.75;nan
22440;BME280;11387;51.612;7.210;2024-03-23T08:36:18;100023.66;;;14.31;nan
22440;BME280;11387;51.612;7.210;2024-03-23T08:38:41;100015.41;;;15.88;nan
22440;BME280;11387;51.612;7.210;2024-03-23T08:41:04;100017.16;;;14.47;nan
22440;BME280;11387;51.612;7.210;2024-03-23T08:43:28;100020.81;;;12.45;nan
22440;BME280;11387;51.612;7.210;2024-03-23T08:45:51;64647.09;;;21.67;nan
22440;BME280;11387;51.612;7.210;2024-03-23T08:48:15;100012.91;;;11.26;nan
22440;BME280;11387;51.612;7.210;2024-03-23T08:50:37;100023.03;;;10.83;nan
22440;BME280;11387;51.612;7.210;2024-03-23T08:53:00;100018.34;;;9.59;nan
22440;BME280;11387;51.612;7.210;2024-03-23T08:55:22;100025.97;;;9.46;nan
22440;BME280;11387;51.612;7.210;2024-03-23T08:57:44;100026.31;;;10.28;nan
22440;BME280;11387;51.612;7.210;2024-03-23T09:00:07;100017.09;;;9.80;nan
22440;BME280;11387;51.612;7.210;2024-03-23T09:02:30;100018.91;;;11.52;nan
22440;BME280;11387;51.612;7.210;2024-03-23T09:04:53;100012.94;;;10.69;nan
22440;BME280;11387;51.612;7.210;2024-03-23T09:07:15;100018.47;;;10.51;nan
22440;BME280;11387;51.612;7.210;2024-03-23T09:09:38;100015.97;;;10.74;nan
22440;BME280;11387;51.612;7.210;2024-03-23T09:12:00;100011.66;;;15.26;nan
22440;BME280;11387;51.612;7.210;2024-03-23T09:14:22;100010.75;;;15.19;nan
22440;BME280;11387;51.612;7.210;2024-03-23T09:16:45;99991.00;;;16.69;nan
22440;BME280;11387;51.612;7.210;2024-03-23T09:19:07;100003.47;;;16.37;nan
22440;BME280;11387;51.612;7.210;2024-03-23T09:21:31;100002.75;;;13.15;nan
22440;BME280;11387;51.612;7.210;2024-03-23T09:23:53;100018.53;;;12.03;nan
22440;BME280;11387;51.612;7.210;2024-03-23T09:26:15;100021.69;;;10.95;nan
22440;BME280;11387;51.612;7.210;2024-03-23T09:28:37;100010.34;;;10.18;nan
22440;BME280;11387;51.612;7.210;2024-03-23T09:31:02;100026.34;;;9.51;nan
22440;BME280;11387;51.612;7.210;2024-03-23T09:33:24;100022.41;;;13.38;nan
22440;BME280;11387;51.612;7.210;2024-03-23T09:35:46;100007.00;;;19.23;nan
22440;BME280;11387;51.612;7.210;2024-03-23T09:38:10;100009.16;;;20.80;nan
22440;BME280;11387;51.612;7.210;2024-03-23T09:40:33;100018.75;;;21.48;nan
22440;BME280;11387;51.612;7.210;2024-03-23T09:42:54;100011.03;;;22.20;nan
22440;BME280;11387;51.612;7.210;2024-03-23T09:45:23;100003.88;;;22.76;nan
22440;BME280;11387;51.612;7.210;2024-03-23T09:47:47;100010.69;;;23.75;nan
22440;BME280;11387;51.612;7.210;2024-03-23T09:50:12;100008.50;;;20.36;nan
22440;BME280;11387;51.612;7.210;2024-03-23T09:52:34;100018.25;;;15.52;nan
22440;BME280;11387;51.612;7.210;2024-03-23T09:54:57;100024.47;;;13.95;nan
22440;BME280;11387;51.612;7.210;2024-03-23T09:57:19;100024.56;;;15.59;nan
22440;BME280;11387;51.612;7.210;2024-03-23T09:59:42;100016.03;;;18.67;nan
22440;BME280;11387;51.612;7.210;2024-03-23T10:02:04;100005.00;;;18.17;nan
22440;BME280;11387;51.612;7.210;2024-03-23T10:04:43;100011.19;;;17.73;nan
22440;BME280;11387;51.612;7.210;2024-03-23T10:07:11;100007.63;;;20.54;nan
22440;BME280;11387;51.612;7.210;2024-03-23T10:09:33;99998.78;;;23.14;nan
22440;BME280;11387;51.612;7.210;2024-03-23T10:12:08;99982.03;;;26.23;nan
22440;BME280;11387;51.612;7.210;2024-03-23T10:14:31;99993.88;;;23.33;nan
22440;BME280;11387;51.612;7.210;2024-03-23T10:16:52;99990.66;;;24.67;nan
22440;BME280;11387;51.612;7.210;2024-03-23T10:19:30;99982.88;;;27.92;nan
22440;BME280;11387;51.612;7.210;2024-03-23T10:21:52;99978.78;;;23.52;nan
22440;BME280;11387;51.612;7.210;2024-03-23T10:24:15;99980.94;;;22.08;nan
22440;BME280;11387;51.612;7.210;2024-03-23T10:26:37;99979.03;;;25.24;nan
22440;BME280;11387;51.612;7.210;2024-03-23T10:29:01;99980.69;;;24.93;nan
22440;BME280;11387;51.612;7.210;2024-03-23T10:31:24;99971.41;;;22.11;nan
22440;BME280;11387;51.612;7.210;2024-03-23T10:33:48;99976.72;;;20.72;nan
22440;BME280;11387;51.612;7.210;2024-03-23T10:36:10;99969.13;;;20.97;nan
22440;BME280;11387;51.612;7.210;2024-03-23T10:38:33;99977.94;;;23.90;nan
22440;BME280;11387;51.612;7.210;2024-03-23T10:40:56;99967.56;;;27.14;nan
22440;BME280;11387;51.612;7.210;2024-03-23T10:43:19;99970.03;;;26.75;nan
22440;BME280;11387;51.612;7.210;2024-03-23T10:45:42;99970.28;;;27.50;nan
22440;BME280;11387;51.612;7.210;2024-03-23T10:48:06;99972.06;;;26.02;nan
22440;BME280;11387;51.612;7.210;2024-03-23T10:50:28;99980.75;;;26.56;nan
22440;BME280;11387;51.612;7.210;2024-03-23T10:52:52;99972.53;;;25.36;nan
22440;BME280;11387;51.612;7.210;2024-03-23T10:55:17;99980.06;;;21.79;nan
22440;BME280;11387;51.612;7.210;2024-03-23T10:57:43;99981.06;;;18.71;nan
22440;BME280;11387;51.612;7.210;2024-03-23T11:00:07;99994.75;;;15.59;nan
22440;BME280;11387;51.612;7.210;2024-03-23T11:02:33;99997.19;;;13.46;nan
22440;BME280;11387;51.612;7.210;2024-03-23T11:04:54;100016.13;;;10.80;nan
22440;BME280;11387;51.612;7.210;2024-03-23T11:07:29;100018.44;;;9.84;nan
22440;BME280;11387;51.612;7.210;2024-03-23T11:09:51;100030.13;;;8.71;nan
22440;BME280;11387;51.612;7.210;2024-03-23T11:12:25;100060.72;;;8.32;nan
22440;BME280;11387;51.612;7.210;2024-03-23T11:14:47;100067.47;;;7.81;nan
22440;BME280;11387;51.612;7.210;2024-03-23T11:17:10;100048.47;;;6.71;nan
22440;BME280;11387;51.612;7.210;2024-03-23T11:19:37;100049.59;;;6.39;nan
22440;BME280;11387;51.612;7.210;2024-03-23T11:22:01;100046.78;;;6.31;nan
22440;BME280;11387;51.612;7.210;2024-03-23T11:24:23;100041.13;;;6.25;nan
22440;BME280;11387;51.612;7.210;2024-03-23T11:26:46;100040.25;;;8.41;nan
22440;BME280;11387;51.612;7.210;2024-03-23T11:29:11;64647.09;;;-145.52;100.00
22440;BME280;11387;51.612;7.210;2024-03-23T11:31:36;64647.09;;;22.89;100.00
22440;BME280;11387;51.612;7.210;2024-03-23T11:34:03;100001.28;;;21.37;nan
22440;BME280;11387;51.612;7.210;2024-03-23T11:36:27;100009.91;;;23.24;nan
22440;BME280;11387;51.612;7.210;2024-03-23T11:38:49;100000.03;;;24.71;nan
22440;BME280;11387;51.612;7.210;2024-03-23T11:41:11;100000.91;;;27.43;nan
22440;BME280;11387;51.612;7.210;2024-03-23T11:43:33;100006.50;;;28.24;nan
22440;BME280;11387;51.612;7.210;2024-03-23T11:45:56;100013.59;;;26.68;nan
22440;BME280;11387;51.612;7.210;2024-03-23T11:48:20;99999.03;;;28.24;nan
22440;BME280;11387;51.612;7.210;2024-03-23T11:50:45;100010.00;;;24.28;nan
22440;BME280;11387;51.612;7.210;2024-03-23T11:53:13;100011.47;;;23.37;nan
22440;BME280;11387;51.612;7.210;2024-03-23T11:58:02;99990.03;;;24.60;nan
22440;BME280;11387;51.612;7.210;2024-03-23T12:00:25;99977.88;;;23.85;nan
22440;BME280;11387;51.612;7.210;2024-03-23T12:02:47;99987.69;;;20.53;nan
22440;BME280;11387;51.612;7.210;2024-03-23T12:05:14;99979.47;;;18.18;nan
22440;BME280;11387;51.612;7.210;2024-03-23T12:07:36;99997.84;;;18.92;nan
22440;BME280;11387;51.612;7.210;2024-03-23T12:10:07;99994.25;;;16.25;nan
22440;BME280;11387;51.612;7.210;2024-03-23T12:12:29;99980.72;;;14.21;nan
22440;BME280;11387;51.612;7.210;2024-03-23T12:15:01;99980.56;;;12.21;nan
22440;BME280;11387;51.612;7.210;2024-03-23T12:17:23;99959.16;;;12.27;nan
22440;BME280;11387;51.612;7.210;2024-03-23T12:19:46;99989.13;;;15.54;nan
22440;BME280;11387;51.612;7.210;2024-03-23T12:22:08;99972.88;;;18.71;nan
22440;BME280;11387;51.612;7.210;2024-03-23T12:24:31;99972.03;;;17.15;nan
22440;BME280;11387;51.612;7.210;2024-03-23T12:26:54;99977.34;;;14.41;nan
22440;BME280;11387;51.612;7.210;2024-03-23T12:29:17;99988.75;;;12.96;nan
22440;BME280;11387;51.612;7.210;2024-03-23T12:31:39;99998.97;;;11.70;nan
22440;BME280;11387;51.612;7.210;2024-03-23T12:34:01;100002.50;;;10.41;nan
22440;BME280;11387;51.612;7.210;2024-03-23T12:36:25;99986.69;;;12.98;nan
22440;BME280;11387;51.612;7.210;2024-03-23T12:38:48;99971.97;;;17.49;nan
22440;BME280;11387;51.612;7.210;2024-03-23T12:41:10;99972.66;;;19.65;nan
22440;BME280;11387;51.612;7.210;2024-03-23T12:43:34;99968.78;;;21.76;nan
22440;BME280;11387;51.612;7.210;2024-03-23T12:45:59;99973.25;;;24.62;nan
22440;BME280;11387;51.612;7.210;2024-03-23T12:48:21;99971.00;;;23.27;nan
22440;BME280;11387;51.612;7.210;2024-03-23T12:50:43;99973.47;;;22.61;nan
22440;BME280;11387;51.612;7.210;2024-03-23T12:53:06;99969.50;;;19.99;nan
22440;BME280;11387;51.612;7.210;2024-03-23T12:55:27;99960.22;;;18.51;nan
22440;BME280;11387;51.612;7.210;2024-03-23T12:57:50;99965.25;;;16.25;nan
22440;BME280;11387;51.612;7.210;2024-03-23T13:00:14;99961.19;;;15.94;nan
22440;BME280;11387;51.612;7.210;2024-03-23T13:02:38;99961.00;;;14.27;nan
22440;BME280;11387;51.612;7.210;2024-03-23T13:05:00;99948.19;;;14.36;nan
22440;BME280;11387;51.612;7.210;2024-03-23T13:07:23;99944.25;;;12.54;nan
22440;BME280;11387;51.612;7.210;2024-03-23T13:09:45;99961.53;;;11.91;nan
22440;BME280;11387;51.612;7.210;2024-03-23T13:12:08;99947.13;;;13.43;nan
22440;BME280;11387;51.612;7.210;2024-03-23T13:14:30;99960.13;;;12.03;nan
22440;BME280;11387;51.612;7.210;2024-03-23T13:16:54;99972.25;;;11.04;nan
22440;BME280;11387;51.612;7.210;2024-03-23T13:19:15;99972.53;;;10.12;nan
22440;BME280;11387;51.612;7.210;2024-03-23T13:21:40;99973.56;;;9.60;nan
22440;BME280;11387;51.612;7.210;2024-03-23T13:24:01;99990.03;;;9.05;nan
22440;BME280;11387;51.612;7.210;2024-03-23T13:26:24;99986.69;;;9.03;nan
22440;BME280;11387;51.612;7.210;2024-03-23T13:28:46;99971.47;;;9.11;nan
22440;BME280;11387;51.612;7.210;2024-03-23T13:31:09;99985.94;;;9.19;nan
22440;BME280;11387;51.612;7.210;2024-03-23T13:33:31;99985.94;;;9.95;nan
22440;BME280;11387;51.612;7.210;2024-03-23T13:35:55;99990.22;;;11.28;nan
22440;BME280;11387;51.612;7.210;2024-03-23T13:38:17;99982.44;;;11.42;nan
22440;BME280;11387;51.612;7.210;2024-03-23T13:40:49;99960.53;;;13.51;nan
22440;BME280;11387;51.612;7.210;2024-03-23T13:43:10;99979.56;;;15.92;nan
22440;BME280;11387;51.612;7.210;2024-03-23T13:45:33;99989.03;;;16.16;nan
22440;BME280;11387;51.612;7.210;2024-03-23T13:47:55;99987.16;;;15.69;nan
22440;BME280;11387;51.612;7.210;2024-03-23T13:50:18;99977.16;;;13.70;nan
22440;BME280;11387;51.612;7.210;2024-03-23T13:52:40;99981.72;;;12.49;nan
22440;BME280;11387;51.612;7.210;2024-03-23T13:55:05;99988.13;;;10.00;nan
22440;BME280;11387;51.612;7.210;2024-03-23T13:57:29;99996.22;;;9.05;nan
22440;BME280;11387;51.612;7.210;2024-03-23T13:59:51;100003.66;;;8.32;nan